createdAt,value
2022-12-26T00:01:15.205Z,67.74
2022-12-26T00:03:48.114Z,67.82
2022-12-26T00:06:31.709Z,67.65
2022-12-26T00:09:09.489Z,68.02
2022-12-26T00:11:42.263Z,68.20
2022-12-26T00:14:21.056Z,67.85
2022-12-26T00:16:54.341Z,67.99
2022-12-26T00:19:27.911Z,67.84
2022-12-26T00:22:02.655Z,67.95
2022-12-26T00:24:35.382Z,68.39
2022-12-26T00:27:07.989Z,68.53
2022-12-26T00:29:40.332Z,68.25
2022-12-26T00:32:12.858Z,68.32
2022-12-26T00:34:50.222Z,68.20
2022-12-26T00:37:24.689Z,68.08
2022-12-26T00:39:58.026Z,68.44
2022-12-26T00:42:30.674Z,68.94
2022-12-26T00:45:05.738Z,69.03
2022-12-26T00:47:43.082Z,69.11
2022-12-26T00:50:16.544Z,69.34
2022-12-26T00:52:51.963Z,69.48
2022-12-26T00:55:27.901Z,69.08
2022-12-26T00:58:00.843Z,69.14
2022-12-26T01:00:36.616Z,69.11
2022-12-26T01:03:15.160Z,69.24
2022-12-26T01:05:52.378Z,69.31
2022-12-26T01:08:27.397Z,69.46
2022-12-26T01:11:03.451Z,69.22
2022-12-26T01:13:37.097Z,69.35
2022-12-26T01:16:10.930Z,69.48
2022-12-26T01:18:43.167Z,69.21
2022-12-26T01:21:16.709Z,69.31
2022-12-26T01:23:49.982Z,69.32
2022-12-26T01:26:25.855Z,68.95
2022-12-26T01:28:58.897Z,68.34
2022-12-26T01:31:32.853Z,68.62
2022-12-26T01:34:06.053Z,68.76
2022-12-26T01:36:39.388Z,68.84
2022-12-26T01:39:13.949Z,68.85
2022-12-26T01:41:48.622Z,68.97
2022-12-26T01:44:58.125Z,69.18
2022-12-26T01:47:38.661Z,69.03
2022-12-26T01:50:19.837Z,69.24
2022-12-26T01:52:52.485Z,69.09
2022-12-26T01:55:25.566Z,69.09
2022-12-26T01:58:00.790Z,69.04
2022-12-26T02:00:34.981Z,68.52
2022-12-26T02:03:27.300Z,68.40
2022-12-26T02:06:01.411Z,68.62
2022-12-26T02:08:38.997Z,68.62
2022-12-26T02:11:17.443Z,68.52
2022-12-26T02:13:51.878Z,68.25
2022-12-26T02:16:27.780Z,68.55
2022-12-26T02:19:00.828Z,69.03
2022-12-26T02:21:55.836Z,68.75
2022-12-26T02:25:00.680Z,68.46
2022-12-26T02:28:00.253Z,68.72
2022-12-26T02:30:46.373Z,68.83
2022-12-26T02:33:26.193Z,68.69
2022-12-26T02:36:16.451Z,68.84
2022-12-26T02:39:03.123Z,69.10
2022-12-26T02:42:03.037Z,68.90
2022-12-26T02:44:59.965Z,69.06
2022-12-26T02:47:40.730Z,68.41
2022-12-26T02:50:39.161Z,68.26
2022-12-26T02:53:37.532Z,68.78
2022-12-26T02:56:34.952Z,68.84
2022-12-26T02:59:56.469Z,69.04
2022-12-26T03:02:53.072Z,68.81
2022-12-26T03:05:50.413Z,68.77
2022-12-26T03:08:44.467Z,68.62
2022-12-26T03:11:38.375Z,68.50
2022-12-26T03:14:16.157Z,68.65
2022-12-26T03:17:13.715Z,68.32
2022-12-26T03:20:04.772Z,68.35
2022-12-26T03:22:40.477Z,68.56
2022-12-26T03:25:35.121Z,68.77
2022-12-26T03:28:08.187Z,68.83
2022-12-26T03:30:52.149Z,68.53
2022-12-26T03:33:48.342Z,68.88
2022-12-26T03:36:27.027Z,68.63
2022-12-26T03:39:08.723Z,68.93
2022-12-26T03:42:11.234Z,69.10
2022-12-26T03:45:20.747Z,69.24
2022-12-26T03:48:17.853Z,69.41
2022-12-26T03:51:13.323Z,69.20
2022-12-26T03:54:07.510Z,69.33
2022-12-26T03:57:06.241Z,69.34
2022-12-26T04:00:04.632Z,69.39
2022-12-26T04:02:57.852Z,69.49
2022-12-26T04:05:53.483Z,69.26
2022-12-26T04:08:49.754Z,69.03
2022-12-26T04:11:46.039Z,69.17
2022-12-26T04:14:45.713Z,69.38
2022-12-26T04:17:47.968Z,69.57
2022-12-26T04:20:23.788Z,69.53
2022-12-26T04:23:19.934Z,69.40
2022-12-26T04:26:13.750Z,69.43
2022-12-26T04:29:05.216Z,69.33
2022-12-26T04:32:00.172Z,69.64
2022-12-26T04:35:00.982Z,69.29
2022-12-26T04:37:53.989Z,69.53
2022-12-26T04:40:50.751Z,69.61
2022-12-26T04:43:49.753Z,69.87
2022-12-26T04:46:27.764Z,69.87
2022-12-26T04:49:18.578Z,69.78
2022-12-26T04:51:50.559Z,69.86
2022-12-26T04:54:24.034Z,69.59
2022-12-26T04:56:58.041Z,69.21
2022-12-26T04:59:34.360Z,68.86
2022-12-26T05:02:28.111Z,69.15
2022-12-26T05:05:18.411Z,68.62
2022-12-26T05:08:12.463Z,68.27
2022-12-26T05:10:45.747Z,68.68
2022-12-26T05:13:18.965Z,69.14
2022-12-26T05:16:11.421Z,69.55
2022-12-26T05:19:01.166Z,69.34
2022-12-26T05:21:54.977Z,69.11
2022-12-26T05:24:55.502Z,69.25
2022-12-26T05:27:58.990Z,69.45
2022-12-26T05:30:32.381Z,69.78
2022-12-26T05:33:22.773Z,69.81
2022-12-26T05:35:56.583Z,69.83
2022-12-26T05:38:28.853Z,70.37
2022-12-26T05:41:05.600Z,70.49
2022-12-26T05:43:39.155Z,70.25
2022-12-26T05:46:12.489Z,70.51
2022-12-26T05:48:45.174Z,70.51
2022-12-26T05:51:20.371Z,70.54
2022-12-26T05:53:55.083Z,70.57
2022-12-26T05:56:30.747Z,70.59
2022-12-26T05:59:04.330Z,70.83
2022-12-26T06:01:37.326Z,71.02
2022-12-26T06:04:13.799Z,71.34
2022-12-26T06:06:47.018Z,71.53
2022-12-26T06:09:20.263Z,71.50
2022-12-26T06:11:56.124Z,71.33
2022-12-26T06:14:29.640Z,71.51
2022-12-26T06:17:02.110Z,71.98
2022-12-26T06:19:43.005Z,72.31
2022-12-26T06:22:19.695Z,72.18
2022-12-26T06:24:52.658Z,71.88
2022-12-26T06:27:27.254Z,72.29
2022-12-26T06:30:02.224Z,73.63
2022-12-26T06:32:36.245Z,74.01
2022-12-26T06:35:10.392Z,74.76
2022-12-26T06:37:43.126Z,75.87
2022-12-26T06:40:16.394Z,75.99
2022-12-26T06:42:48.246Z,76.16
2022-12-26T06:45:21.074Z,76.45
2022-12-26T06:47:55.653Z,76.12
2022-12-26T06:50:28.365Z,76.58
2022-12-26T06:53:01.456Z,76.85
2022-12-26T06:55:34.923Z,76.59
2022-12-26T06:58:08.186Z,76.09
2022-12-26T07:00:40.783Z,75.90
2022-12-26T07:03:14.960Z,75.69
2022-12-26T07:05:47.326Z,76.02
2022-12-26T07:08:21.875Z,76.04
2022-12-26T07:10:54.782Z,75.98
2022-12-26T07:13:28.809Z,75.71
2022-12-26T07:16:05.535Z,75.44
2022-12-26T07:18:39.392Z,75.16
2022-12-26T07:21:15.373Z,75.01
2022-12-26T07:23:49.834Z,74.71
2022-12-26T07:26:24.169Z,74.32
2022-12-26T07:28:57.950Z,73.88
2022-12-26T07:31:30.089Z,73.78
2022-12-26T07:34:04.485Z,73.37
2022-12-26T07:36:38.688Z,73.15
2022-12-26T07:39:14.327Z,72.92
2022-12-26T07:42:00.735Z,72.47
2022-12-26T07:44:35.034Z,71.99
2022-12-26T07:47:08.004Z,72.18
2022-12-26T07:49:40.517Z,71.58
2022-12-26T07:52:12.397Z,70.97
2022-12-26T07:54:46.399Z,70.41
2022-12-26T07:57:47.326Z,70.64
2022-12-26T08:00:15.796Z,70.29
2022-12-26T08:02:50.500Z,70.43
2022-12-26T08:05:23.339Z,70.05
2022-12-26T08:07:56.869Z,69.66
2022-12-26T08:10:29.941Z,69.73
2022-12-26T08:13:02.709Z,69.67
2022-12-26T08:15:36.630Z,69.37
2022-12-26T08:18:11.440Z,69.30
2022-12-26T08:20:46.526Z,69.14
2022-12-26T08:23:21.621Z,69.31
2022-12-26T08:25:53.772Z,69.53
2022-12-26T08:28:28.054Z,69.62
2022-12-26T08:31:02.375Z,69.46
2022-12-26T08:33:36.090Z,69.55
2022-12-26T08:36:12.496Z,69.66
2022-12-26T08:38:49.423Z,70.02
2022-12-26T08:41:22.771Z,69.81
2022-12-26T08:44:26.388Z,69.89
2022-12-26T08:46:49.928Z,69.53
2022-12-26T08:49:23.058Z,69.45
2022-12-26T08:51:58.291Z,69.65
2022-12-26T08:54:35.036Z,69.64
2022-12-26T08:57:07.685Z,69.45
2022-12-26T08:59:43.702Z,69.31
2022-12-26T09:02:17.051Z,69.21
2022-12-26T09:04:50.937Z,69.13
2022-12-26T09:07:24.185Z,69.18
2022-12-26T09:09:58.894Z,68.55
2022-12-26T09:12:32.425Z,68.83
2022-12-26T09:15:09.525Z,68.76
2022-12-26T09:17:44.134Z,68.65
2022-12-26T09:20:18.021Z,68.82
2022-12-26T09:22:54.386Z,68.50
2022-12-26T09:25:27.849Z,68.69
2022-12-26T09:28:03.289Z,68.64
2022-12-26T09:30:39.426Z,68.64
2022-12-26T09:33:12.787Z,68.52
2022-12-26T09:35:49.607Z,68.87
2022-12-26T09:38:23.771Z,68.64
2022-12-26T09:41:09.764Z,68.58
2022-12-26T09:43:52.488Z,68.56
2022-12-26T09:46:33.166Z,68.87
2022-12-26T09:49:09.628Z,68.87
2022-12-26T09:51:44.449Z,68.67
2022-12-26T09:54:26.709Z,68.17
2022-12-26T09:57:02.700Z,68.43
2022-12-26T09:59:43.986Z,68.55
2022-12-26T10:02:21.530Z,68.46
2022-12-26T10:04:55.947Z,68.70
2022-12-26T10:07:33.045Z,68.46
2022-12-26T10:10:13.442Z,68.68
2022-12-26T10:12:57.791Z,68.77
2022-12-26T10:15:44.465Z,69.02
2022-12-26T10:18:32.351Z,68.89
2022-12-26T10:21:17.727Z,68.81
2022-12-26T10:23:52.637Z,68.90
2022-12-26T10:26:30.608Z,68.99
2022-12-26T10:29:12.688Z,69.00
2022-12-26T10:31:49.042Z,68.99
2022-12-26T10:34:25.980Z,68.93
2022-12-26T10:37:04.558Z,68.78
2022-12-26T10:39:42.163Z,68.85
2022-12-26T10:42:21.369Z,68.80
2022-12-26T10:44:55.093Z,68.37
2022-12-26T10:47:39.150Z,67.91
2022-12-26T10:50:27.853Z,67.79
2022-12-26T10:53:02.620Z,68.03
2022-12-26T10:55:36.967Z,68.23
2022-12-26T10:58:19.393Z,68.10
2022-12-26T11:00:52.284Z,68.40
2022-12-26T11:03:25.613Z,68.30
2022-12-26T11:06:09.265Z,68.32
2022-12-26T11:08:50.729Z,67.69
2022-12-26T11:11:46.369Z,67.59
2022-12-26T11:14:34.610Z,67.51
2022-12-26T11:17:10.206Z,67.35
2022-12-26T11:19:47.755Z,67.41
2022-12-26T11:22:27.488Z,67.07
2022-12-26T11:25:25.089Z,66.73
2022-12-26T11:28:01.518Z,67.03
2022-12-26T11:30:35.799Z,67.17
2022-12-26T11:33:22.777Z,66.81
2022-12-26T11:35:59.805Z,66.58
2022-12-26T11:38:44.858Z,66.72
2022-12-26T11:41:32.997Z,66.51
2022-12-26T11:44:15.488Z,66.45
2022-12-26T11:46:54.268Z,66.27
2022-12-26T11:49:31.920Z,65.93
2022-12-26T11:52:29.323Z,65.71
2022-12-26T11:55:03.336Z,65.28
2022-12-26T11:57:36.935Z,65.34
2022-12-26T12:00:22.099Z,65.28
2022-12-26T12:02:56.462Z,64.90
2022-12-26T12:05:37.586Z,64.92
2022-12-26T12:08:20.342Z,64.63
2022-12-26T12:11:00.168Z,64.82
2022-12-26T12:13:44.986Z,64.55
2022-12-26T12:16:33.263Z,64.82
2022-12-26T12:19:22.962Z,64.81
2022-12-26T12:22:08.327Z,64.34
2022-12-26T12:24:58.428Z,64.46
2022-12-26T12:27:35.101Z,64.42
2022-12-26T12:30:17.240Z,63.67
2022-12-26T12:33:06.297Z,63.78
2022-12-26T12:35:55.209Z,64.11
2022-12-26T12:38:38.299Z,63.81
2022-12-26T12:41:29.674Z,63.74
2022-12-26T12:44:08.635Z,63.49
2022-12-26T12:46:53.881Z,62.89
2022-12-26T12:49:39.975Z,63.20
2022-12-26T12:52:19.277Z,62.26
2022-12-26T12:55:11.599Z,62.40
2022-12-26T12:57:51.093Z,62.62
2022-12-26T13:00:25.583Z,62.52
2022-12-26T13:03:01.098Z,62.36
2022-12-26T13:05:47.240Z,62.36
2022-12-26T13:08:25.291Z,62.45
2022-12-26T13:11:03.373Z,61.99
2022-12-26T13:13:49.973Z,62.42
2022-12-26T13:16:34.522Z,62.35
2022-12-26T13:19:25.879Z,61.98
2022-12-26T13:22:02.427Z,61.87
2022-12-26T13:24:40.089Z,62.06
2022-12-26T13:27:21.873Z,61.40
2022-12-26T13:29:56.862Z,61.62
2022-12-26T13:32:41.914Z,61.46
2022-12-26T13:35:47.679Z,61.25
2022-12-26T13:38:20.438Z,61.88
2022-12-26T13:40:57.317Z,61.74
2022-12-26T13:43:48.488Z,61.86
2022-12-26T13:46:56.000Z,62.00
2022-12-26T13:49:36.495Z,61.77
2022-12-26T13:52:37.995Z,61.96
2022-12-26T13:55:35.004Z,61.79
2022-12-26T13:58:24.063Z,61.92
2022-12-26T14:01:01.037Z,62.09
2022-12-26T14:03:53.436Z,62.08
2022-12-26T14:06:49.127Z,61.99
2022-12-26T14:09:49.894Z,61.86
2022-12-26T14:12:44.551Z,61.81
2022-12-26T14:15:39.158Z,62.09
2022-12-26T14:18:23.039Z,62.22
2022-12-26T14:21:03.766Z,61.97
2022-12-26T14:23:46.949Z,62.21
2022-12-26T14:26:32.666Z,62.54
2022-12-26T14:29:14.500Z,62.68
2022-12-26T14:31:58.200Z,62.82
2022-12-26T14:34:46.225Z,63.13
2022-12-26T14:37:24.386Z,63.50
2022-12-26T14:40:09.939Z,63.71
2022-12-26T14:43:16.640Z,64.06
2022-12-26T14:45:52.368Z,64.57
2022-12-26T14:48:55.063Z,66.33
2022-12-26T14:51:53.199Z,67.01
2022-12-26T14:54:51.329Z,65.99
2022-12-26T14:57:57.172Z,65.94
2022-12-26T15:00:37.496Z,66.38
2022-12-26T15:03:28.737Z,66.45
2022-12-26T15:06:25.241Z,66.58
2022-12-26T15:09:21.019Z,66.82
2022-12-26T15:12:19.051Z,66.74
2022-12-26T15:15:28.973Z,67.06
2022-12-26T15:18:42.978Z,67.47
2022-12-26T15:21:49.201Z,67.31
2022-12-26T15:25:18.948Z,67.20
2022-12-26T15:28:24.209Z,67.26
2022-12-26T15:31:20.423Z,67.28
2022-12-26T15:34:00.265Z,67.10
2022-12-26T15:36:43.640Z,67.36
2022-12-26T15:39:28.152Z,67.17
2022-12-26T15:42:13.713Z,67.09
2022-12-26T15:44:52.988Z,66.92
2022-12-26T15:47:30.196Z,66.99
2022-12-26T15:50:20.820Z,67.00
2022-12-26T15:53:07.073Z,66.85
2022-12-26T15:56:04.943Z,66.89
2022-12-26T15:59:09.156Z,66.92
2022-12-26T16:01:46.212Z,66.91
2022-12-26T16:04:24.194Z,66.72
2022-12-26T16:07:09.769Z,66.66
2022-12-26T16:09:47.780Z,66.71
2022-12-26T16:12:28.104Z,66.50
2022-12-26T16:15:18.714Z,66.67
2022-12-26T16:17:51.216Z,66.89
2022-12-26T16:20:51.051Z,67.07
2022-12-26T16:23:26.399Z,67.37
2022-12-26T16:26:00.683Z,67.46
2022-12-26T16:28:38.397Z,67.56
2022-12-26T16:31:17.748Z,67.66
2022-12-26T16:33:54.200Z,67.84
2022-12-26T16:36:28.384Z,68.28
2022-12-26T16:39:09.519Z,68.82
2022-12-26T16:42:06.924Z,69.16
2022-12-26T16:44:43.142Z,69.25
2022-12-26T16:47:18.505Z,69.68
2022-12-26T16:49:52.557Z,70.44
2022-12-26T16:52:43.912Z,70.16
2022-12-26T16:55:36.603Z,70.27
2022-12-26T16:58:17.419Z,70.37
2022-12-26T17:01:04.352Z,70.58
2022-12-26T17:03:53.220Z,70.67
2022-12-26T17:06:29.030Z,70.88
2022-12-26T17:09:05.439Z,70.71
2022-12-26T17:11:40.820Z,70.81
2022-12-26T17:14:23.601Z,70.76
2022-12-26T17:17:15.041Z,70.83
2022-12-26T17:19:54.123Z,70.88
2022-12-26T17:22:33.382Z,71.02
2022-12-26T17:25:30.056Z,71.53
2022-12-26T17:28:31.386Z,71.91
2022-12-26T17:31:15.460Z,72.10
2022-12-26T17:33:49.657Z,72.12
2022-12-26T17:37:17.363Z,72.36
2022-12-26T17:39:22.964Z,72.33
2022-12-26T17:41:56.937Z,72.33
2022-12-26T17:44:42.935Z,72.25
2022-12-26T17:47:22.688Z,72.17
2022-12-26T17:49:55.879Z,72.08
2022-12-26T17:52:31.015Z,71.96
2022-12-26T17:55:05.707Z,71.91
2022-12-26T17:57:39.466Z,71.86
2022-12-26T18:00:18.137Z,71.95
2022-12-26T18:02:52.347Z,71.71
2022-12-26T18:05:30.017Z,71.53
2022-12-26T18:08:05.327Z,71.75
2022-12-26T18:10:39.798Z,71.80
2022-12-26T18:13:18.488Z,71.76
2022-12-26T18:15:52.433Z,71.61
2022-12-26T18:18:31.226Z,71.58
2022-12-26T18:21:05.823Z,71.54
2022-12-26T18:23:40.316Z,71.65
2022-12-26T18:26:19.115Z,71.71
2022-12-26T18:28:53.135Z,71.62
2022-12-26T18:31:32.066Z,71.79
2022-12-26T18:34:05.969Z,71.83
2022-12-26T18:36:43.420Z,71.76
2022-12-26T18:39:18.122Z,71.63
2022-12-26T18:41:50.627Z,71.66
2022-12-26T18:44:23.333Z,71.56
2022-12-26T18:46:57.232Z,71.58
2022-12-26T18:49:34.878Z,71.39
2022-12-26T18:52:08.987Z,71.31
2022-12-26T18:54:43.794Z,71.37
2022-12-26T18:57:20.311Z,71.38
2022-12-26T18:59:52.866Z,71.38
2022-12-26T19:02:27.362Z,71.35
2022-12-26T19:05:03.525Z,71.40
2022-12-26T19:07:36.785Z,71.42
2022-12-26T19:10:14.562Z,71.35
2022-12-26T19:12:50.640Z,71.35
2022-12-26T19:15:25.576Z,71.12
2022-12-26T19:18:02.026Z,71.17
2022-12-26T19:20:43.688Z,71.09
2022-12-26T19:23:19.496Z,71.22
2022-12-26T19:25:54.035Z,71.06
2022-12-26T19:28:27.955Z,70.96
2022-12-26T19:31:01.001Z,70.85
2022-12-26T19:33:35.705Z,70.71
2022-12-26T19:36:10.126Z,70.65
2022-12-26T19:38:44.388Z,70.62
2022-12-26T19:41:17.683Z,70.59
2022-12-26T19:43:58.836Z,70.39
2022-12-26T19:46:31.987Z,70.56
2022-12-26T19:49:05.403Z,70.62
2022-12-26T19:51:39.961Z,70.53
2022-12-26T19:54:15.512Z,70.48
2022-12-26T19:56:48.208Z,70.51
2022-12-26T19:59:20.952Z,70.65
2022-12-26T20:01:56.003Z,70.66
2022-12-26T20:04:29.615Z,70.63
2022-12-26T20:07:05.004Z,70.66
2022-12-26T20:09:41.292Z,70.48
2022-12-26T20:12:14.712Z,70.69
2022-12-26T20:14:48.093Z,70.70
2022-12-26T20:17:23.257Z,70.71
2022-12-26T20:19:59.564Z,70.77
2022-12-26T20:22:38.227Z,70.90
2022-12-26T20:25:14.283Z,70.80
2022-12-26T20:27:47.941Z,71.05
2022-12-26T20:30:22.680Z,71.44
2022-12-26T20:32:56.680Z,71.66
2022-12-26T20:35:33.211Z,71.66
2022-12-26T20:38:07.715Z,71.75
2022-12-26T20:40:49.766Z,71.94
2022-12-26T20:43:24.875Z,71.84
2022-12-26T20:46:05.661Z,71.89
2022-12-26T20:48:42.591Z,71.90
2022-12-26T20:51:18.062Z,72.09
2022-12-26T20:53:53.045Z,72.23
2022-12-26T20:56:26.331Z,72.51
2022-12-26T20:58:59.962Z,72.53
2022-12-26T21:01:35.345Z,72.68
2022-12-26T21:04:08.862Z,72.86
2022-12-26T21:06:45.667Z,72.84
2022-12-26T21:09:19.500Z,72.84
2022-12-26T21:11:54.086Z,72.95
2022-12-26T21:14:29.971Z,72.76
2022-12-26T21:17:02.676Z,72.68
2022-12-26T21:19:34.996Z,72.73
2022-12-26T21:22:08.038Z,73.04
2022-12-26T21:24:41.749Z,72.95
2022-12-26T21:27:13.729Z,73.10
2022-12-26T21:29:46.519Z,72.97
2022-12-26T21:32:21.069Z,72.88
2022-12-26T21:34:53.375Z,72.76
2022-12-26T21:37:45.865Z,72.79
2022-12-26T21:40:23.858Z,72.79
2022-12-26T21:42:59.307Z,72.70
2022-12-26T21:45:31.393Z,72.71
2022-12-26T21:48:09.741Z,72.69
2022-12-26T21:50:48.150Z,72.87
2022-12-26T21:53:21.403Z,72.67
2022-12-26T21:55:53.759Z,72.61
2022-12-26T21:58:26.384Z,72.79
2022-12-26T22:01:00.847Z,72.72
2022-12-26T22:03:53.401Z,72.61
2022-12-26T22:06:27.512Z,72.63
2022-12-26T22:09:05.339Z,72.69
2022-12-26T22:11:58.373Z,72.74
2022-12-26T22:14:32.653Z,72.52
2022-12-26T22:17:05.464Z,72.51
2022-12-26T22:19:39.017Z,72.53
2022-12-26T22:22:11.120Z,72.46
2022-12-26T22:24:47.246Z,72.30
2022-12-26T22:27:19.500Z,72.20
2022-12-26T22:29:53.291Z,72.36
2022-12-26T22:32:26.647Z,72.29
2022-12-26T22:35:00.388Z,72.16
2022-12-26T22:37:35.178Z,72.18
2022-12-26T22:40:14.789Z,72.06
2022-12-26T22:42:49.977Z,72.02
2022-12-26T22:45:26.750Z,72.02
2022-12-26T22:47:58.863Z,72.11
2022-12-26T22:50:31.765Z,72.39
2022-12-26T22:53:04.083Z,72.06
2022-12-26T22:55:39.156Z,71.83
2022-12-26T22:58:11.451Z,72.13
2022-12-26T23:00:45.629Z,72.15
2022-12-26T23:03:20.114Z,72.07
2022-12-26T23:05:56.371Z,71.87
2022-12-26T23:08:31.492Z,71.87
2022-12-26T23:11:04.729Z,71.70
2022-12-26T23:13:38.423Z,71.72
2022-12-26T23:16:19.578Z,71.68
2022-12-26T23:19:15.212Z,71.73
2022-12-26T23:21:50.560Z,73.82
2022-12-26T23:24:24.079Z,76.08
2022-12-26T23:27:20.288Z,76.13
2022-12-26T23:30:13.247Z,74.97
2022-12-26T23:32:48.860Z,72.42
2022-12-26T23:35:22.710Z,71.28
2022-12-26T23:37:56.585Z,70.97
2022-12-26T23:40:29.987Z,70.58
2022-12-26T23:43:02.941Z,70.47
2022-12-26T23:45:35.407Z,70.37
2022-12-26T23:48:09.383Z,70.54
2022-12-26T23:50:43.004Z,70.82
2022-12-26T23:53:18.932Z,70.92
2022-12-26T23:55:54.298Z,70.83
2022-12-26T23:58:28.121Z,70.71
